Terminal Aerodrome Forecast
Issued by NWS

Home | Current Version | Previous Version | Text Only | Print | Product List | Glossary On
Versions: 1 2 3 4 5 6 7 8 9 10 11 12 13 14 15 16 17 18 19 20 21 22 23 24 25
979
FTUS44 KBMX 241051 AAC
TAFEET
TAF AMD
KEET 241051Z 2411/2506 VRB02KT P6SM SCT025 OVC050
      TEMPO 2411/2412 SCT005
     FM241200 28005KT 5SM -SHRA BR OVC015
     FM241500 26010KT P6SM OVC025
     FM242000 26012G18KT P6SM OVC050=

USA.gov is the U.S. government's official web portal to all federal, state and local government web resources and services.